Buoy 44857

sailwx.info

Track history (hours):
 
Tides and Currents Weather Stations Pressure Air Temp Water Temp Dewpoint Dewpoint Depression Visibility Wind Speed Wind Dir Waves Ship Positions

Drifting buoy 44857

Last reported at 2018-Jun-21 06:00 UTC. Time now 2018-Jun-21 06:46 UTC.
Position N 25°34' W 039°54'.

Barometer 1024.5 mb
Water temperature 24.6 ° C

Date/timePositionNaut miles runAvg speedWind from/ knotsBaromVisibWave heightAir tempDewpointWater temp
2018-Jun-21 06:00N 25°34' W 039°54'1 0.8 1024.5 24.6
2018-Jun-21 05:00N 25°33' W 039°53'0 0.0 1024.5 24.6
2018-Jun-21 04:00N 25°33' W 039°53'0 0.0 1024.4 24.6
2018-Jun-21 03:00N 25°33' W 039°53'1 0.8 1024.9 24.6
2018-Jun-21 02:00N 25°32' W 039°53'0 0.0 1025.2 24.6
2018-Jun-21 01:00N 25°32' W 039°53'0 0.0 1025.4 24.6
2018-Jun-21 00:00N 25°32' W 039°53'1 0.6 1025.3 24.7
2018-Jun-20 23:00N 25°32' W 039°53'1 0.5 1024.7 24.7
2018-Jun-20 22:00N 25°32' W 039°53'1 0.8 1024.3 24.7
2018-Jun-20 21:00N 25°31' W 039°53'1 0.6 1023.7 24.8
2018-Jun-20 20:00N 25°31' W 039°53'1 0.8 1023.4 24.8
2018-Jun-20 19:00N 25°30' W 039°52'0 0.0 1023.2 24.8
2018-Jun-20 18:00N 25°30' W 039°52'1 0.8 1023.3 24.8
2018-Jun-20 17:00N 25°29' W 039°52'1 0.6 1023.3 24.8
2018-Jun-20 16:00N 25°29' W 039°52'1 0.8 1023.5 24.7
2018-Jun-20 15:00N 25°28' W 039°51'1 0.6 1023.8 24.6
2018-Jun-20 14:00N 25°28' W 039°51'1 0.8 1024.0 24.6
2018-Jun-20 13:00N 25°27' W 039°50'1 0.6 1024.2 24.5
2018-Jun-20 12:00N 25°26' W 039°50'1 0.8 1024.0 24.5
2018-Jun-20 11:00N 25°26' W 039°50'0 0.0 1023.8 24.5
2018-Jun-20 10:00N 25°26' W 039°50'1 0.8 1023.7 24.5
2018-Jun-20 09:00N 25°25' W 039°49'1 0.5 1023.3 24.4
2018-Jun-20 08:00N 25°25' W 039°49'1 0.6 1022.6 24.4
2018-Jun-20 07:00N 25°25' W 039°49'1 0.8 1022.3 24.4
2018-Jun-20 06:00N 25°24' W 039°48'0 0.0 1022.2 24.4
2018-Jun-20 05:00N 25°24' W 039°48'1 0.8 1022.3 24.4
2018-Jun-20 04:00N 25°23' W 039°47'1 0.6 1022.6 24.5
2018-Jun-20 03:00N 25°23' W 039°47'1 0.6 1023.0 24.5
2018-Jun-20 01:00N 25°22' W 039°46'1 0.5 1023.8 24.5
2018-Jun-20 00:00N 25°22' W 039°46'1 0.8 1023.7 24.5
2018-Jun-19 23:00N 25°22' W 039°45'1 0.8 1023.3 24.6
2018-Jun-19 22:00N 25°21' W 039°44'1 0.6 1022.9 24.6
2018-Jun-19 21:00N 25°20' W 039°44'1 1.2 1022.6 24.6
2018-Jun-19 20:00N 25°20' W 039°43'1 0.6 1022.3 24.7
2018-Jun-19 18:00N 25°19' W 039°42'1 0.8 1022.5 24.7
2018-Jun-19 17:00N 25°19' W 039°41'1 1.2 1022.7 24.6
2018-Jun-19 16:00N 25°18' W 039°40'1 0.8 1022.9 24.6
2018-Jun-19 15:00N 25°17' W 039°40'1 1.1 1023.2 24.5
2018-Jun-19 14:00N 25°17' W 039°38'1 1.2 1023.4 24.4
2018-Jun-19 13:00N 25°17' W 039°37'1 0.5 1023.4 24.4
2018-Jun-19 12:00N 25°17' W 039°37'1 0.5 1023.4 24.4
2018-Jun-19 11:00N 25°17' W 039°36'1 0.5 1023.2 24.4
2018-Jun-19 10:00N 25°17' W 039°35'1 0.8 1023.2 24.4
2018-Jun-19 09:00N 25°16' W 039°35'1 0.5 1022.9 24.4
2018-Jun-19 08:00N 25°16' W 039°34'1 0.5 1022.6 24.4
2018-Jun-19 07:00N 25°16' W 039°34'1 0.8 1022.6 24.4
2018-Jun-19 06:00N 25°16' W 039°33'0 0.0 1022.4 24.4
2018-Jun-19 05:00N 25°16' W 039°33'1 0.8 1022.7 24.4
2018-Jun-19 04:00N 25°15' W 039°32'0 0.0 1022.8 24.4
2018-Jun-19 03:00N 25°15' W 039°32'1 0.8 1023.3 24.5
2018-Jun-19 02:00N 25°14' W 039°32'1 0.8 1023.8 24.5
2018-Jun-19 01:00N 25°14' W 039°31'1 0.4 1024.0 24.5
2018-Jun-18 23:00N 25°13' W 039°31'1 0.6 1023.5 24.6
2018-Jun-18 22:00N 25°13' W 039°31'1 0.8 1023.2 24.7
2018-Jun-18 21:00N 25°12' W 039°30'1 0.6 1023.0 24.7
2018-Jun-18 19:00N 25°11' W 039°29'1 0.8 1022.9 24.8
2018-Jun-18 18:00N 25°11' W 039°28'1 0.8 1022.9 24.8
2018-Jun-18 17:00N 25°10' W 039°28'1 0.5 1023.3 24.8
2018-Jun-18 16:00N 25°10' W 039°27'1 0.6 1023.3 24.8
2018-Jun-18 14:00N 25°10' W 039°26'1 0.5 1023.8 24.5
2018-Jun-18 13:00N 25°10' W 039°25'1 0.6 1023.8 24.4
2018-Jun-18 12:00N 25°10' W 039°25'1 0.5 1023.7 24.4
2018-Jun-18 11:00N 25°10' W 039°25'0 0.0 1023.9 24.3
2018-Jun-18 09:00N 25°10' W 039°25'0 0.0 1023.7 24.3
2018-Jun-18 08:00N 25°10' W 039°25'1 0.5 1023.3 24.2
2018-Jun-18 07:00N 25°10' W 039°24'0 0.0 1023.2 24.2
2018-Jun-18 06:00N 25°10' W 039°24'1 0.6 1023.3 24.2
2018-Jun-18 05:00N 25°10' W 039°24'0 0.0 1023.3 24.2
2018-Jun-18 04:00N 25°10' W 039°24'0 0.0 1023.6 24.2
2018-Jun-18 03:00N 25°10' W 039°24'1 0.8 1024.0 24.3
2018-Jun-18 02:00N 25°09' W 039°23'0 0.0 1024.4 24.3
2018-Jun-18 01:00N 25°09' W 039°23'1 0.6 1024.7 24.3
2018-Jun-18 00:00N 25°08' W 039°23'0 0.0 1024.7 24.3
2018-Jun-17 23:00N 25°08' W 039°23'1 0.5 1024.5 24.4
2018-Jun-17 22:00N 25°08' W 039°23'0 0.0 1024.1 24.4
2018-Jun-17 21:00N 25°08' W 039°23'1 0.6 1023.7 24.4
2018-Jun-17 20:00N 25°08' W 039°23'0 0.0 1023.4 24.5
2018-Jun-17 19:00N 25°08' W 039°23'1 0.8 1023.3 24.5
2018-Jun-17 18:00N 25°07' W 039°22'0 0.0 1023.7 24.6
2018-Jun-17 17:00N 25°07' W 039°22'1 0.6 1023.9 24.5
2018-Jun-17 16:00N 25°07' W 039°22'1 0.5 1024.2 24.5
2018-Jun-17 15:00N 25°07' W 039°22'1 0.8 1024.5 24.5
2018-Jun-17 14:00N 25°06' W 039°21'1 0.6 1024.8 24.3
2018-Jun-17 13:00N 25°05' W 039°21'1 0.8 1024.7 24.2
2018-Jun-17 12:00N 25°05' W 039°20'1 0.8 1024.7 24.2
2018-Jun-17 11:00N 25°04' W 039°20'1 0.6 1024.6 24.2
2018-Jun-17 10:00N 25°04' W 039°20'1 0.5 1024.5 24.1
2018-Jun-17 09:00N 25°04' W 039°19'1 0.5 1024.2 24.1
2018-Jun-17 08:00N 25°04' W 039°19'1 0.5 1023.7 24.2
2018-Jun-17 07:00N 25°04' W 039°18'1 0.5 1023.6 24.2
2018-Jun-17 06:00N 25°04' W 039°17'0 0.0 1023.8 24.2
2018-Jun-17 05:00N 25°04' W 039°17'0 0.0 1024.0 24.2
2018-Jun-17 04:00N 25°04' W 039°17'1 0.5 1024.3 24.2
2018-Jun-17 03:00N 25°04' W 039°17'1 0.5 1024.7 24.3
2018-Jun-17 02:00N 25°04' W 039°17'1 0.8 1025.2 24.3
2018-Jun-17 01:00N 25°03' W 039°17'1 0.6 1025.7 24.3
2018-Jun-17 00:00N 25°02' W 039°17'1 0.6 1025.5 24.3
2018-Jun-16 23:00N 25°02' W 039°17'2 0.8 1025.3 24.3
2018-Jun-16 21:00N 25°01' W 039°16'1 0.8 1024.7 24.3
2018-Jun-16 20:00N 25°00' W 039°15'1 0.8 1024.3 24.3
2018-Jun-16 19:00N 24°59' W 039°14'1 0.8 1024.1 24.3
2018-Jun-16 18:00N 24°59' W 039°14'1 0.5 1024.4 24.3
2018-Jun-16 17:00N 24°59' W 039°13'1 0.8 1024.7 24.2
2018-Jun-16 16:00N 24°58' W 039°13'1 0.8 1025.1 24.2
2018-Jun-16 15:00N 24°58' W 039°12'1 0.5 1025.3 24.1
2018-Jun-16 14:00N 24°58' W 039°11'1 0.8 1025.7 24.0
2018-Jun-16 13:00N 24°57' W 039°11'1 0.8 1025.7 24.0
2018-Jun-16 12:00N 24°56' W 039°10'1 0.8 1025.5 23.9
2018-Jun-16 11:00N 24°56' W 039°10'1 0.8 1025.4 23.9
2018-Jun-16 10:00N 24°55' W 039°09'1 0.8 1025.1 23.9
2018-Jun-16 09:00N 24°55' W 039°08'1 0.5 1024.9 23.8
2018-Jun-16 08:00N 24°55' W 039°08'1 0.6 1024.5 23.8
2018-Jun-16 07:00N 24°54' W 039°08'1 0.8 1024.2 23.8
2018-Jun-16 06:00N 24°53' W 039°07'1 0.5 1024.0 23.8
2018-Jun-16 04:00N 24°53' W 039°06'1 0.8 1024.5 23.9
2018-Jun-16 03:00N 24°53' W 039°05'1 0.5 1025.1 23.9
2018-Jun-16 02:00N 24°53' W 039°05'1 0.6 1025.5 23.9
2018-Jun-16 01:00N 24°52' W 039°05'1 0.8 1025.7 24.0
2018-Jun-16 00:00N 24°52' W 039°04'1 0.6 1025.3 24.0
2018-Jun-15 23:00N 24°51' W 039°04'1 0.8 1025.1 24.0
2018-Jun-15 22:00N 24°50' W 039°04'1 0.5 1024.6 24.1
2018-Jun-15 21:00N 24°50' W 039°03'1 0.8 1024.2 24.1
2018-Jun-15 20:00N 24°50' W 039°02'1 0.8 1023.8 24.1
2018-Jun-15 19:00N 24°49' W 039°02'1 0.5 1024.0 24.2
2018-Jun-15 18:00N 24°49' W 039°01'1 0.5 1024.2 24.2
2018-Jun-15 17:00N 24°49' W 039°01'1 0.8 1024.5 24.2
2018-Jun-15 16:00N 24°49' W 039°00'0 0.0 1024.6 24.1
2018-Jun-15 15:00N 24°49' W 039°00'2 0.5 1025.0 24.1
2018-Jun-15 12:00N 24°47' W 038°59'1 0.8 1025.2 24.0
2018-Jun-15 11:00N 24°47' W 038°58'1 0.6 1024.7 24.0
2018-Jun-15 10:00N 24°46' W 038°58'0 0.0 1024.6 24.0
2018-Jun-15 09:00N 24°46' W 038°58'1 0.8 1024.2 24.0
2018-Jun-15 08:00N 24°46' W 038°58'0 0.0 1023.8 24.0
2018-Jun-15 07:00N 24°46' W 038°58'1 0.5 1023.3 24.0
2018-Jun-15 06:00N 24°46' W 038°57'1 0.4 1023.4 24.0
2018-Jun-15 04:00N 24°46' W 038°56'1 0.6 1024.2 24.0
2018-Jun-15 03:00N 24°46' W 038°56'0 0.0 1024.6 24.0
2018-Jun-15 01:00N 24°46' W 038°56'1 0.6 1025.2 24.1
2018-Jun-15 00:00N 24°45' W 038°56'1 0.5 1025.1 24.1
2018-Jun-14 23:00N 24°45' W 038°56'1 0.6 1025.0 24.1
2018-Jun-14 22:00N 24°44' W 038°56'0 0.0 1024.5 24.1
2018-Jun-14 21:00N 24°44' W 038°56'1 0.8 1024.0 24.1
2018-Jun-14 20:00N 24°44' W 038°55'1 0.5 1023.8 24.2
2018-Jun-14 19:00N 24°44' W 038°55'0 0.0 1023.7 24.2
2018-Jun-14 18:00N 24°44' W 038°55'1 0.8 1024.1 24.2
2018-Jun-14 17:00N 24°43' W 038°54'1 0.5 1024.1 24.1
2018-Jun-14 16:00N 24°43' W 038°53'0 0.0 1024.3 24.1
2018-Jun-14 15:00N 24°43' W 038°53'1 0.3 1024.5 24.1
2018-Jun-14 12:00N 24°43' W 038°53'1 0.5 1024.6 24.0
2018-Jun-14 11:00N 24°43' W 038°52'0 0.0 1024.4 24.0
2018-Jun-14 10:00N 24°43' W 038°52'0 0.0 1024.5 24.0
2018-Jun-14 09:00N 24°43' W 038°52'1 0.6 1024.1 24.0
2018-Jun-14 08:00N 24°42' W 038°52'1 0.5 1023.6 24.0
2018-Jun-14 07:00N 24°42' W 038°52'0 0.0 1023.5 24.0
2018-Jun-14 06:00N 24°42' W 038°52'1 0.5 1023.9 24.0
2018-Jun-14 05:00N 24°42' W 038°51'1 0.6 1023.8 24.0
2018-Jun-14 04:00N 24°43' W 038°51'0 0.0 1024.2 24.0
2018-Jun-14 03:00N 24°43' W 038°51'1 0.5 1024.7 24.0
2018-Jun-14 02:00N 24°43' W 038°50'0 0.0 1025.0 24.0
2018-Jun-14 01:00N 24°43' W 038°50'1 0.6 1025.3 24.0
2018-Jun-14 00:00N 24°43' W 038°50'0 0.0 1025.3 24.1
2018-Jun-13 23:00N 24°43' W 038°50'1 0.5 1024.8 24.1
2018-Jun-13 22:00N 24°43' W 038°50'1 0.6 1024.2 24.1
2018-Jun-13 21:00N 24°44' W 038°50'0 0.0 1024.3 24.1
2018-Jun-13 20:00N 24°44' W 038°50'1 0.5 1023.9 24.1
2018-Jun-13 19:00N 24°44' W 038°49'0 0.0 1023.5 24.1
2018-Jun-13 18:00N 24°44' W 038°49'1 0.5 1023.9 24.1
2018-Jun-13 17:00N 24°44' W 038°49'1 0.6 1024.0 24.1
2018-Jun-13 16:00N 24°44' W 038°49'1 0.5 1024.5 24.1
2018-Jun-13 15:00N 24°44' W 038°48'1 0.6 1024.8 24.1
2018-Jun-13 14:00N 24°45' W 038°48'0 0.0 1024.7 24.1
2018-Jun-13 13:00N 24°45' W 038°48'0 0.0 1024.8 24.1
2018-Jun-13 12:00N 24°45' W 038°48'1 0.6 1024.8 24.0
2018-Jun-13 11:00N 24°46' W 038°48'1 0.5 1024.7 23.9
2018-Jun-13 10:00N 24°46' W 038°47'0 0.0 1024.9 24.0
2018-Jun-13 09:00N 24°46' W 038°47'0 0.0 1024.4 24.0
2018-Jun-13 08:00N 24°46' W 038°47'1 0.5 1023.9 24.0
2018-Jun-13 07:00N 24°46' W 038°47'1 0.6 1023.4 24.0
2018-Jun-13 06:00N 24°46' W 038°47'1 0.5 1023.5 24.0
2018-Jun-13 05:00N 24°46' W 038°46'1 0.6 1023.6 24.1
2018-Jun-13 04:00N 24°47' W 038°46'1 0.6 1024.3 24.1
2018-Jun-13 03:00N 24°47' W 038°46'0 0.0 1024.7 24.1
2018-Jun-13 02:00N 24°47' W 038°46'0 0.0 1024.9 24.1
2018-Jun-13 01:00N 24°47' W 038°46'1 0.8 1025.5 24.1
2018-Jun-13 00:00N 24°48' W 038°46'0 0.0 1025.4 24.2
2018-Jun-12 23:00N 24°48' W 038°46'0 0.0 1025.0 24.2
2018-Jun-12 22:00N 24°48' W 038°46'1 0.6 1024.4 24.2
2018-Jun-12 21:00N 24°49' W 038°46'0 0.0 1023.9 24.2
2018-Jun-12 20:00N 24°49' W 038°46'1 0.5 1023.6 24.3
2018-Jun-12 19:00N 24°49' W 038°45'0 0.0 1023.6 24.3
2018-Jun-12 18:00N 24°49' W 038°45'1 0.5 1023.9 24.3
2018-Jun-12 17:00N 24°49' W 038°44'0 0.0 1024.3 24.3
2018-Jun-12 16:00N 24°49' W 038°44'1 0.6 1024.6 24.2
2018-Jun-12 15:00N 24°49' W 038°44'1 0.5 1024.8 24.2
2018-Jun-12 14:00N 24°49' W 038°44'0 0.0 1025.1 24.1
2018-Jun-12 13:00N 24°49' W 038°44'0 0.0 1025.4 24.1
2018-Jun-12 12:00N 24°49' W 038°44'0 0.0 1025.4 24.1
2018-Jun-12 11:00N 24°49' W 038°44'1 0.8 1025.1 24.0
2018-Jun-12 10:00N 24°50' W 038°43'0 0.0 1024.7 24.0
2018-Jun-12 09:00N 24°50' W 038°43'0 0.0 1024.2 24.0
2018-Jun-12 08:00N 24°50' W 038°43'1 0.5 1023.9 23.9
2018-Jun-12 07:00N 24°50' W 038°43'1 0.6 1023.5 24.0
2018-Jun-12 06:00N 24°50' W 038°43'1 0.6 1023.5 24.0
2018-Jun-12 05:00N 24°51' W 038°43'1 0.5 1023.8 24.0
2018-Jun-12 04:00N 24°51' W 038°42'0 0.0 1024.0 24.1
2018-Jun-12 03:00N 24°51' W 038°42'1 0.6 1024.5 24.1
2018-Jun-12 02:00N 24°52' W 038°42'1 0.6 1024.7 24.1
2018-Jun-12 01:00N 24°52' W 038°42'1 0.6 1024.9 24.2
2018-Jun-12 00:00N 24°53' W 038°42'1 0.6 1024.9 24.2
2018-Jun-11 23:00N 24°53' W 038°42'0 0.0 1024.5 24.4
2018-Jun-11 22:00N 24°53' W 038°42'0 0.0 1024.0 24.4
2018-Jun-11 21:00N 24°53' W 038°42'1 0.6 1023.9 24.5
2018-Jun-11 20:00N 24°54' W 038°42'0 0.0 1023.5 24.5
2018-Jun-11 19:00N 24°54' W 038°42'1 0.5 1023.4 24.6
2018-Jun-11 18:00N 24°54' W 038°41'1 0.6 1023.8 24.7
2018-Jun-11 17:00N 24°55' W 038°41'1 0.5 1024.0 24.6
2018-Jun-11 16:00N 24°55' W 038°41'0 0.0 1024.3 24.6
2018-Jun-11 15:00N 24°55' W 038°41'1 0.6 1024.7 24.4
2018-Jun-11 14:00N 24°55' W 038°41'1 0.8 1025.1 24.2
2018-Jun-11 13:00N 24°56' W 038°40'0 0.0 1025.2 24.1
2018-Jun-11 12:00N 24°56' W 038°40'0 0.0 1025.2 24.0
2018-Jun-11 11:00N 24°56' W 038°40'1 0.6 1025.1 23.9
2018-Jun-11 10:00N 24°56' W 038°40'0 0.0 1025.0 23.9
2018-Jun-11 09:00N 24°56' W 038°40'0 0.0 1024.8 23.9
2018-Jun-11 08:00N 24°56' W 038°40'0 0.0 1024.3 23.9
2018-Jun-11 07:00N 24°56' W 038°40'1 0.8 1023.8 24.0
2018-Jun-11 06:00N 24°57' W 038°40'   1023.8 24.0
Track history (hours):
 
Tides and Currents Weather Stations Pressure Air Temp Water Temp Dewpoint Dewpoint Depression Visibility Wind Speed Wind Dir Waves Ship Positions

Drifting buoy 44857

Last reported at 2018-Jun-21 06:00 UTC. Time now 2018-Jun-21 06:46 UTC.
Position N 25°34' W 039°54'.

Barometer 1024.5 mb
Water temperature 24.6 ° C

Date/timePositionNaut miles runAvg speedWind from/ knotsBaromVisibWave heightAir tempDewpointWater temp
2018-Jun-21 06:00N 25°34' W 039°54'1 0.8 1024.5 24.6
2018-Jun-21 05:00N 25°33' W 039°53'0 0.0 1024.5 24.6
2018-Jun-21 04:00N 25°33' W 039°53'0 0.0 1024.4 24.6
2018-Jun-21 03:00N 25°33' W 039°53'1 0.8 1024.9 24.6
2018-Jun-21 02:00N 25°32' W 039°53'0 0.0 1025.2 24.6
2018-Jun-21 01:00N 25°32' W 039°53'0 0.0 1025.4 24.6
2018-Jun-21 00:00N 25°32' W 039°53'1 0.6 1025.3 24.7
2018-Jun-20 23:00N 25°32' W 039°53'1 0.5 1024.7 24.7
2018-Jun-20 22:00N 25°32' W 039°53'1 0.8 1024.3 24.7
2018-Jun-20 21:00N 25°31' W 039°53'1 0.6 1023.7 24.8
2018-Jun-20 20:00N 25°31' W 039°53'1 0.8 1023.4 24.8
2018-Jun-20 19:00N 25°30' W 039°52'0 0.0 1023.2 24.8
2018-Jun-20 18:00N 25°30' W 039°52'1 0.8 1023.3 24.8
2018-Jun-20 17:00N 25°29' W 039°52'1 0.6 1023.3 24.8
2018-Jun-20 16:00N 25°29' W 039°52'1 0.8 1023.5 24.7
2018-Jun-20 15:00N 25°28' W 039°51'1 0.6 1023.8 24.6
2018-Jun-20 14:00N 25°28' W 039°51'1 0.8 1024.0 24.6
2018-Jun-20 13:00N 25°27' W 039°50'1 0.6 1024.2 24.5
2018-Jun-20 12:00N 25°26' W 039°50'1 0.8 1024.0 24.5
2018-Jun-20 11:00N 25°26' W 039°50'0 0.0 1023.8 24.5
2018-Jun-20 10:00N 25°26' W 039°50'1 0.8 1023.7 24.5
2018-Jun-20 09:00N 25°25' W 039°49'1 0.5 1023.3 24.4
2018-Jun-20 08:00N 25°25' W 039°49'1 0.6 1022.6 24.4
2018-Jun-20 07:00N 25°25' W 039°49'1 0.8 1022.3 24.4
2018-Jun-20 06:00N 25°24' W 039°48'0 0.0 1022.2 24.4
2018-Jun-20 05:00N 25°24' W 039°48'1 0.8 1022.3 24.4
2018-Jun-20 04:00N 25°23' W 039°47'1 0.6 1022.6 24.5
2018-Jun-20 03:00N 25°23' W 039°47'1 0.6 1023.0 24.5
2018-Jun-20 01:00N 25°22' W 039°46'1 0.5 1023.8 24.5
2018-Jun-20 00:00N 25°22' W 039°46'1 0.8 1023.7 24.5
2018-Jun-19 23:00N 25°22' W 039°45'1 0.8 1023.3 24.6
2018-Jun-19 22:00N 25°21' W 039°44'1 0.6 1022.9 24.6
2018-Jun-19 21:00N 25°20' W 039°44'1 1.2 1022.6 24.6
2018-Jun-19 20:00N 25°20' W 039°43'1 0.6 1022.3 24.7
2018-Jun-19 18:00N 25°19' W 039°42'1 0.8 1022.5 24.7
2018-Jun-19 17:00N 25°19' W 039°41'1 1.2 1022.7 24.6
2018-Jun-19 16:00N 25°18' W 039°40'1 0.8 1022.9 24.6
2018-Jun-19 15:00N 25°17' W 039°40'1 1.1 1023.2 24.5
2018-Jun-19 14:00N 25°17' W 039°38'1 1.2 1023.4 24.4
2018-Jun-19 13:00N 25°17' W 039°37'1 0.5 1023.4 24.4
2018-Jun-19 12:00N 25°17' W 039°37'1 0.5 1023.4 24.4
2018-Jun-19 11:00N 25°17' W 039°36'1 0.5 1023.2 24.4
2018-Jun-19 10:00N 25°17' W 039°35'1 0.8 1023.2 24.4
2018-Jun-19 09:00N 25°16' W 039°35'1 0.5 1022.9 24.4
2018-Jun-19 08:00N 25°16' W 039°34'1 0.5 1022.6 24.4
2018-Jun-19 07:00N 25°16' W 039°34'1 0.8 1022.6 24.4
2018-Jun-19 06:00N 25°16' W 039°33'0 0.0 1022.4 24.4
2018-Jun-19 05:00N 25°16' W 039°33'1 0.8 1022.7 24.4
2018-Jun-19 04:00N 25°15' W 039°32'0 0.0 1022.8 24.4
2018-Jun-19 03:00N 25°15' W 039°32'1 0.8 1023.3 24.5
2018-Jun-19 02:00N 25°14' W 039°32'1 0.8 1023.8 24.5
2018-Jun-19 01:00N 25°14' W 039°31'1 0.4 1024.0 24.5
2018-Jun-18 23:00N 25°13' W 039°31'1 0.6 1023.5 24.6
2018-Jun-18 22:00N 25°13' W 039°31'1 0.8 1023.2 24.7
2018-Jun-18 21:00N 25°12' W 039°30'1 0.6 1023.0 24.7
2018-Jun-18 19:00N 25°11' W 039°29'1 0.8 1022.9 24.8
2018-Jun-18 18:00N 25°11' W 039°28'1 0.8 1022.9 24.8
2018-Jun-18 17:00N 25°10' W 039°28'1 0.5 1023.3 24.8
2018-Jun-18 16:00N 25°10' W 039°27'1 0.6 1023.3 24.8
2018-Jun-18 14:00N 25°10' W 039°26'1 0.5 1023.8 24.5
2018-Jun-18 13:00N 25°10' W 039°25'1 0.6 1023.8 24.4
2018-Jun-18 12:00N 25°10' W 039°25'1 0.5 1023.7 24.4
2018-Jun-18 11:00N 25°10' W 039°25'0 0.0 1023.9 24.3
2018-Jun-18 09:00N 25°10' W 039°25'0 0.0 1023.7 24.3
2018-Jun-18 08:00N 25°10' W 039°25'1 0.5 1023.3 24.2
2018-Jun-18 07:00N 25°10' W 039°24'0 0.0 1023.2 24.2
2018-Jun-18 06:00N 25°10' W 039°24'1 0.6 1023.3 24.2
2018-Jun-18 05:00N 25°10' W 039°24'0 0.0 1023.3 24.2
2018-Jun-18 04:00N 25°10' W 039°24'0 0.0 1023.6 24.2
2018-Jun-18 03:00N 25°10' W 039°24'1 0.8 1024.0 24.3
2018-Jun-18 02:00N 25°09' W 039°23'0 0.0 1024.4 24.3
2018-Jun-18 01:00N 25°09' W 039°23'1 0.6 1024.7 24.3
2018-Jun-18 00:00N 25°08' W 039°23'0 0.0 1024.7 24.3
2018-Jun-17 23:00N 25°08' W 039°23'1 0.5 1024.5 24.4
2018-Jun-17 22:00N 25°08' W 039°23'0 0.0 1024.1 24.4
2018-Jun-17 21:00N 25°08' W 039°23'1 0.6 1023.7 24.4
2018-Jun-17 20:00N 25°08' W 039°23'0 0.0 1023.4 24.5
2018-Jun-17 19:00N 25°08' W 039°23'1 0.8 1023.3 24.5
2018-Jun-17 18:00N 25°07' W 039°22'0 0.0 1023.7 24.6
2018-Jun-17 17:00N 25°07' W 039°22'1 0.6 1023.9 24.5
2018-Jun-17 16:00N 25°07' W 039°22'1 0.5 1024.2 24.5
2018-Jun-17 15:00N 25°07' W 039°22'1 0.8 1024.5 24.5
2018-Jun-17 14:00N 25°06' W 039°21'1 0.6 1024.8 24.3
2018-Jun-17 13:00N 25°05' W 039°21'1 0.8 1024.7 24.2
2018-Jun-17 12:00N 25°05' W 039°20'1 0.8 1024.7 24.2
2018-Jun-17 11:00N 25°04' W 039°20'1 0.6 1024.6 24.2
2018-Jun-17 10:00N 25°04' W 039°20'1 0.5 1024.5 24.1
2018-Jun-17 09:00N 25°04' W 039°19'1 0.5 1024.2 24.1
2018-Jun-17 08:00N 25°04' W 039°19'1 0.5 1023.7 24.2
2018-Jun-17 07:00N 25°04' W 039°18'1 0.5 1023.6 24.2
2018-Jun-17 06:00N 25°04' W 039°17'0 0.0 1023.8 24.2
2018-Jun-17 05:00N 25°04' W 039°17'0 0.0 1024.0 24.2
2018-Jun-17 04:00N 25°04' W 039°17'1 0.5 1024.3 24.2
2018-Jun-17 03:00N 25°04' W 039°17'1 0.5 1024.7 24.3
2018-Jun-17 02:00N 25°04' W 039°17'1 0.8 1025.2 24.3
2018-Jun-17 01:00N 25°03' W 039°17'1 0.6 1025.7 24.3
2018-Jun-17 00:00N 25°02' W 039°17'1 0.6 1025.5 24.3
2018-Jun-16 23:00N 25°02' W 039°17'2 0.8 1025.3 24.3
2018-Jun-16 21:00N 25°01' W 039°16'1 0.8 1024.7 24.3
2018-Jun-16 20:00N 25°00' W 039°15'1 0.8 1024.3 24.3
2018-Jun-16 19:00N 24°59' W 039°14'1 0.8 1024.1 24.3
2018-Jun-16 18:00N 24°59' W 039°14'1 0.5 1024.4 24.3
2018-Jun-16 17:00N 24°59' W 039°13'1 0.8 1024.7 24.2
2018-Jun-16 16:00N 24°58' W 039°13'1 0.8 1025.1 24.2
2018-Jun-16 15:00N 24°58' W 039°12'1 0.5 1025.3 24.1
2018-Jun-16 14:00N 24°58' W 039°11'1 0.8 1025.7 24.0
2018-Jun-16 13:00N 24°57' W 039°11'1 0.8 1025.7 24.0
2018-Jun-16 12:00N 24°56' W 039°10'1 0.8 1025.5 23.9
2018-Jun-16 11:00N 24°56' W 039°10'1 0.8 1025.4 23.9
2018-Jun-16 10:00N 24°55' W 039°09'1 0.8 1025.1 23.9
2018-Jun-16 09:00N 24°55' W 039°08'1 0.5 1024.9 23.8
2018-Jun-16 08:00N 24°55' W 039°08'1 0.6 1024.5 23.8
2018-Jun-16 07:00N 24°54' W 039°08'1 0.8 1024.2 23.8
2018-Jun-16 06:00N 24°53' W 039°07'1 0.5 1024.0 23.8
2018-Jun-16 04:00N 24°53' W 039°06'1 0.8 1024.5 23.9
2018-Jun-16 03:00N 24°53' W 039°05'1 0.5 1025.1 23.9
2018-Jun-16 02:00N 24°53' W 039°05'1 0.6 1025.5 23.9
2018-Jun-16 01:00N 24°52' W 039°05'1 0.8 1025.7 24.0
2018-Jun-16 00:00N 24°52' W 039°04'1 0.6 1025.3 24.0
2018-Jun-15 23:00N 24°51' W 039°04'1 0.8 1025.1 24.0
2018-Jun-15 22:00N 24°50' W 039°04'1 0.5 1024.6 24.1
2018-Jun-15 21:00N 24°50' W 039°03'1 0.8 1024.2 24.1
2018-Jun-15 20:00N 24°50' W 039°02'1 0.8 1023.8 24.1
2018-Jun-15 19:00N 24°49' W 039°02'1 0.5 1024.0 24.2
2018-Jun-15 18:00N 24°49' W 039°01'1 0.5 1024.2 24.2
2018-Jun-15 17:00N 24°49' W 039°01'1 0.8 1024.5 24.2
2018-Jun-15 16:00N 24°49' W 039°00'0 0.0 1024.6 24.1
2018-Jun-15 15:00N 24°49' W 039°00'2 0.5 1025.0 24.1
2018-Jun-15 12:00N 24°47' W 038°59'1 0.8 1025.2 24.0
2018-Jun-15 11:00N 24°47' W 038°58'1 0.6 1024.7 24.0
2018-Jun-15 10:00N 24°46' W 038°58'0 0.0 1024.6 24.0
2018-Jun-15 09:00N 24°46' W 038°58'1 0.8 1024.2 24.0
2018-Jun-15 08:00N 24°46' W 038°58'0 0.0 1023.8 24.0
2018-Jun-15 07:00N 24°46' W 038°58'1 0.5 1023.3 24.0
2018-Jun-15 06:00N 24°46' W 038°57'1 0.4 1023.4 24.0
2018-Jun-15 04:00N 24°46' W 038°56'1 0.6 1024.2 24.0
2018-Jun-15 03:00N 24°46' W 038°56'0 0.0 1024.6 24.0
2018-Jun-15 01:00N 24°46' W 038°56'1 0.6 1025.2 24.1
2018-Jun-15 00:00N 24°45' W 038°56'1 0.5 1025.1 24.1
2018-Jun-14 23:00N 24°45' W 038°56'1 0.6 1025.0 24.1
2018-Jun-14 22:00N 24°44' W 038°56'0 0.0 1024.5 24.1
2018-Jun-14 21:00N 24°44' W 038°56'1 0.8 1024.0 24.1
2018-Jun-14 20:00N 24°44' W 038°55'1 0.5 1023.8 24.2
2018-Jun-14 19:00N 24°44' W 038°55'0 0.0 1023.7 24.2
2018-Jun-14 18:00N 24°44' W 038°55'1 0.8 1024.1 24.2
2018-Jun-14 17:00N 24°43' W 038°54'1 0.5 1024.1 24.1
2018-Jun-14 16:00N 24°43' W 038°53'0 0.0 1024.3 24.1
2018-Jun-14 15:00N 24°43' W 038°53'1 0.3 1024.5 24.1
2018-Jun-14 12:00N 24°43' W 038°53'1 0.5 1024.6 24.0
2018-Jun-14 11:00N 24°43' W 038°52'0 0.0 1024.4 24.0
2018-Jun-14 10:00N 24°43' W 038°52'0 0.0 1024.5 24.0
2018-Jun-14 09:00N 24°43' W 038°52'1 0.6 1024.1 24.0
2018-Jun-14 08:00N 24°42' W 038°52'1 0.5 1023.6 24.0
2018-Jun-14 07:00N 24°42' W 038°52'0 0.0 1023.5 24.0
2018-Jun-14 06:00N 24°42' W 038°52'1 0.5 1023.9 24.0
2018-Jun-14 05:00N 24°42' W 038°51'1 0.6 1023.8 24.0
2018-Jun-14 04:00N 24°43' W 038°51'0 0.0 1024.2 24.0
2018-Jun-14 03:00N 24°43' W 038°51'1 0.5 1024.7 24.0
2018-Jun-14 02:00N 24°43' W 038°50'0 0.0 1025.0 24.0
2018-Jun-14 01:00N 24°43' W 038°50'1 0.6 1025.3 24.0
2018-Jun-14 00:00N 24°43' W 038°50'0 0.0 1025.3 24.1
2018-Jun-13 23:00N 24°43' W 038°50'1 0.5 1024.8 24.1
2018-Jun-13 22:00N 24°43' W 038°50'1 0.6 1024.2 24.1
2018-Jun-13 21:00N 24°44' W 038°50'0 0.0 1024.3 24.1
2018-Jun-13 20:00N 24°44' W 038°50'1 0.5 1023.9 24.1
2018-Jun-13 19:00N 24°44' W 038°49'0 0.0 1023.5 24.1
2018-Jun-13 18:00N 24°44' W 038°49'1 0.5 1023.9 24.1
2018-Jun-13 17:00N 24°44' W 038°49'1 0.6 1024.0 24.1
2018-Jun-13 16:00N 24°44' W 038°49'1 0.5 1024.5 24.1
2018-Jun-13 15:00N 24°44' W 038°48'1 0.6 1024.8 24.1
2018-Jun-13 14:00N 24°45' W 038°48'0 0.0 1024.7 24.1
2018-Jun-13 13:00N 24°45' W 038°48'0 0.0 1024.8 24.1
2018-Jun-13 12:00N 24°45' W 038°48'1 0.6 1024.8 24.0
2018-Jun-13 11:00N 24°46' W 038°48'1 0.5 1024.7 23.9
2018-Jun-13 10:00N 24°46' W 038°47'0 0.0 1024.9 24.0
2018-Jun-13 09:00N 24°46' W 038°47'0 0.0 1024.4 24.0
2018-Jun-13 08:00N 24°46' W 038°47'1 0.5 1023.9 24.0
2018-Jun-13 07:00N 24°46' W 038°47'1 0.6 1023.4 24.0
2018-Jun-13 06:00N 24°46' W 038°47'1 0.5 1023.5 24.0
2018-Jun-13 05:00N 24°46' W 038°46'1 0.6 1023.6 24.1
2018-Jun-13 04:00N 24°47' W 038°46'1 0.6 1024.3 24.1
2018-Jun-13 03:00N 24°47' W 038°46'0 0.0 1024.7 24.1
2018-Jun-13 02:00N 24°47' W 038°46'0 0.0 1024.9 24.1
2018-Jun-13 01:00N 24°47' W 038°46'1 0.8 1025.5 24.1
2018-Jun-13 00:00N 24°48' W 038°46'0 0.0 1025.4 24.2
2018-Jun-12 23:00N 24°48' W 038°46'0 0.0 1025.0 24.2
2018-Jun-12 22:00N 24°48' W 038°46'1 0.6 1024.4 24.2
2018-Jun-12 21:00N 24°49' W 038°46'0 0.0 1023.9 24.2
2018-Jun-12 20:00N 24°49' W 038°46'1 0.5 1023.6 24.3
2018-Jun-12 19:00N 24°49' W 038°45'0 0.0 1023.6 24.3
2018-Jun-12 18:00N 24°49' W 038°45'1 0.5 1023.9 24.3
2018-Jun-12 17:00N 24°49' W 038°44'0 0.0 1024.3 24.3
2018-Jun-12 16:00N 24°49' W 038°44'1 0.6 1024.6 24.2
2018-Jun-12 15:00N 24°49' W 038°44'1 0.5 1024.8 24.2
2018-Jun-12 14:00N 24°49' W 038°44'0 0.0 1025.1 24.1
2018-Jun-12 13:00N 24°49' W 038°44'0 0.0 1025.4 24.1
2018-Jun-12 12:00N 24°49' W 038°44'0 0.0 1025.4 24.1
2018-Jun-12 11:00N 24°49' W 038°44'1 0.8 1025.1 24.0
2018-Jun-12 10:00N 24°50' W 038°43'0 0.0 1024.7 24.0
2018-Jun-12 09:00N 24°50' W 038°43'0 0.0 1024.2 24.0
2018-Jun-12 08:00N 24°50' W 038°43'1 0.5 1023.9 23.9
2018-Jun-12 07:00N 24°50' W 038°43'1 0.6 1023.5 24.0
2018-Jun-12 06:00N 24°50' W 038°43'1 0.6 1023.5 24.0
2018-Jun-12 05:00N 24°51' W 038°43'1 0.5 1023.8 24.0
2018-Jun-12 04:00N 24°51' W 038°42'0 0.0 1024.0 24.1
2018-Jun-12 03:00N 24°51' W 038°42'1 0.6 1024.5 24.1
2018-Jun-12 02:00N 24°52' W 038°42'1 0.6 1024.7 24.1
2018-Jun-12 01:00N 24°52' W 038°42'1 0.6 1024.9 24.2
2018-Jun-12 00:00N 24°53' W 038°42'1 0.6 1024.9 24.2
2018-Jun-11 23:00N 24°53' W 038°42'0 0.0 1024.5 24.4
2018-Jun-11 22:00N 24°53' W 038°42'0 0.0 1024.0 24.4
2018-Jun-11 21:00N 24°53' W 038°42'1 0.6 1023.9 24.5
2018-Jun-11 20:00N 24°54' W 038°42'0 0.0 1023.5 24.5
2018-Jun-11 19:00N 24°54' W 038°42'1 0.5 1023.4 24.6
2018-Jun-11 18:00N 24°54' W 038°41'1 0.6 1023.8 24.7
2018-Jun-11 17:00N 24°55' W 038°41'1 0.5 1024.0 24.6
2018-Jun-11 16:00N 24°55' W 038°41'0 0.0 1024.3 24.6
2018-Jun-11 15:00N 24°55' W 038°41'1 0.6 1024.7 24.4
2018-Jun-11 14:00N 24°55' W 038°41'1 0.8 1025.1 24.2
2018-Jun-11 13:00N 24°56' W 038°40'0 0.0 1025.2 24.1
2018-Jun-11 12:00N 24°56' W 038°40'0 0.0 1025.2 24.0
2018-Jun-11 11:00N 24°56' W 038°40'1 0.6 1025.1 23.9
2018-Jun-11 10:00N 24°56' W 038°40'0 0.0 1025.0 23.9
2018-Jun-11 09:00N 24°56' W 038°40'0 0.0 1024.8 23.9
2018-Jun-11 08:00N 24°56' W 038°40'0 0.0 1024.3 23.9
2018-Jun-11 07:00N 24°56' W 038°40'1 0.8 1023.8 24.0
2018-Jun-11 06:00N 24°57' W 038°40'   1023.8 24.0

Dump ship's entire track history